Madill, Oklahoma
Current Conditions -  °F | °C
As of 11:35 PM on Wednesday 17 Dec 2014 (Local Time) from KADM Reporting Station
Overcast Overcast  
Wind Chill: 34°   Ceiling: 500
Heat Index: 39°   Visibility: 10mi
Dew Point: 39°   Wind: 6mph
Humidity: 100%   Direction: 130°SE
Pressure: 30.16"   Gusts: NA
Location:  34.09°N, 96.77°W
Report Text: KADM 180535Z AUTO 13005KT 10SM OVC005 04/04 A3016 RMK AO2 P0001 T00370037
Loading
Personal Weather Stations






























Interactive Weather Map New forecast layout! Learn more

10-Day Weather Forecast

Advertisements
Track Severe Weather on mobile